createdAt,value
2023-04-07T00:01:43.938Z,4.60
2023-04-07T00:04:28.880Z,4.40
2023-04-07T00:07:14.109Z,4.00
2023-04-07T00:09:59.167Z,3.78
2023-04-07T00:12:44.269Z,4.40
2023-04-07T00:15:29.071Z,4.00
2023-04-07T00:18:14.191Z,4.13
2023-04-07T00:20:59.014Z,4.47
2023-04-07T00:23:44.377Z,4.18
2023-04-07T00:26:30.989Z,4.15
2023-04-07T00:29:16.049Z,4.50
2023-04-07T00:32:00.995Z,4.40
2023-04-07T00:34:45.980Z,4.13
2023-04-07T00:37:30.895Z,4.35
2023-04-07T00:40:16.975Z,4.75
2023-04-07T00:43:01.865Z,4.88
2023-04-07T00:45:46.959Z,4.35
2023-04-07T00:48:32.066Z,5.15
2023-04-07T00:51:20.632Z,4.68
2023-04-07T00:54:05.748Z,4.40
2023-04-07T00:56:50.618Z,4.40
2023-04-07T00:59:35.714Z,4.57
2023-04-07T01:02:38.288Z,5.30
2023-04-07T01:05:38.422Z,5.32
2023-04-07T01:08:47.485Z,4.93
2023-04-07T01:11:42.101Z,4.75
2023-04-07T01:14:36.055Z,4.07
2023-04-07T01:17:35.818Z,4.50
2023-04-07T01:20:26.258Z,4.30
2023-04-07T01:23:27.167Z,4.13
2023-04-07T01:26:11.755Z,3.83
2023-04-07T01:29:34.052Z,4.15
2023-04-07T01:32:23.509Z,4.75
2023-04-07T01:35:13.241Z,4.03
2023-04-07T01:37:59.817Z,4.45
2023-04-07T01:40:47.382Z,4.22
2023-04-07T01:43:32.331Z,4.90
2023-04-07T01:46:17.146Z,3.70
2023-04-07T01:49:02.859Z,3.70
2023-04-07T01:51:49.942Z,3.83
2023-04-07T01:54:35.183Z,4.10
2023-04-07T01:57:20.324Z,4.47
2023-04-07T02:00:59.312Z,11.70
2023-04-07T02:04:12.262Z,13.50
2023-04-07T02:07:10.937Z,11.30
2023-04-07T02:10:05.857Z,7.05
2023-04-07T02:12:52.414Z,4.85
2023-04-07T02:15:40.589Z,4.85
2023-04-07T02:18:27.509Z,3.55
2023-04-07T02:21:15.146Z,4.25
2023-04-07T02:24:06.784Z,4.30
2023-04-07T02:26:51.360Z,3.22
2023-04-07T02:29:36.039Z,3.80
2023-04-07T02:32:21.007Z,4.10
2023-04-07T02:35:06.166Z,4.25
2023-04-07T02:37:53.243Z,3.65
2023-04-07T02:40:38.049Z,4.13
2023-04-07T02:43:23.198Z,3.58
2023-04-07T02:46:09.273Z,4.05
2023-04-07T02:48:54.369Z,3.53
2023-04-07T02:51:39.278Z,3.50
2023-04-07T02:54:24.068Z,4.22
2023-04-07T02:57:09.249Z,4.82
2023-04-07T02:59:56.317Z,5.10
2023-04-07T03:02:42.475Z,5.32
2023-04-07T03:05:27.549Z,4.60
2023-04-07T03:08:13.163Z,4.03
2023-04-07T03:10:58.705Z,4.30
2023-04-07T03:13:46.693Z,3.85
2023-04-07T03:16:32.582Z,3.47
2023-04-07T03:19:25.237Z,3.00
2023-04-07T03:22:10.928Z,3.13
2023-04-07T03:25:03.621Z,2.97
2023-04-07T03:27:48.300Z,3.33
2023-04-07T03:30:33.830Z,2.72
2023-04-07T03:33:18.892Z,3.30
2023-04-07T03:36:04.285Z,3.03
2023-04-07T03:38:49.689Z,3.42
2023-04-07T03:41:36.327Z,3.28
2023-04-07T03:44:21.216Z,3.70
2023-04-07T03:47:05.867Z,3.65
2023-04-07T03:49:52.235Z,3.78
2023-04-07T03:52:39.546Z,3.78
2023-04-07T03:55:36.297Z,4.07
2023-04-07T03:58:28.441Z,4.30
2023-04-07T04:01:15.000Z,3.90
2023-04-07T04:04:02.552Z,4.00
2023-04-07T04:06:49.042Z,4.00
2023-04-07T04:09:49.896Z,4.53
2023-04-07T04:12:36.045Z,3.97
2023-04-07T04:15:26.496Z,4.55
2023-04-07T04:18:11.690Z,5.43
2023-04-07T04:20:57.841Z,5.45
2023-04-07T04:23:42.691Z,4.68
2023-04-07T04:26:29.183Z,4.65
2023-04-07T04:29:18.321Z,4.60
2023-04-07T04:32:04.102Z,3.97
2023-04-07T04:34:49.358Z,4.90
2023-04-07T04:37:34.324Z,4.20
2023-04-07T04:40:20.314Z,4.70
2023-04-07T04:43:08.935Z,4.50
2023-04-07T04:45:56.389Z,3.92
2023-04-07T04:48:44.236Z,4.03
2023-04-07T04:51:29.563Z,3.85
2023-04-07T04:54:20.521Z,4.03
2023-04-07T04:57:05.513Z,4.25
2023-04-07T04:59:51.809Z,4.40
2023-04-07T05:02:37.200Z,4.38
2023-04-07T05:05:24.164Z,4.40
2023-04-07T05:08:11.085Z,4.50
2023-04-07T05:10:57.488Z,3.70
2023-04-07T05:13:44.350Z,4.10
2023-04-07T05:16:29.358Z,3.80
2023-04-07T05:19:14.879Z,3.80
2023-04-07T05:21:59.834Z,4.28
2023-04-07T05:24:45.554Z,4.88
2023-04-07T05:27:30.430Z,5.05
2023-04-07T05:30:20.529Z,4.93
2023-04-07T05:33:05.390Z,5.55
2023-04-07T05:35:58.427Z,5.93
2023-04-07T05:38:43.208Z,5.70
2023-04-07T05:41:32.193Z,5.53
2023-04-07T05:44:17.768Z,5.47
2023-04-07T05:47:08.218Z,4.82
2023-04-07T05:49:54.760Z,6.32
2023-04-07T05:52:39.630Z,6.53
2023-04-07T05:55:36.231Z,6.25
2023-04-07T05:58:22.324Z,6.28
2023-04-07T06:01:10.447Z,7.05
2023-04-07T06:03:55.374Z,6.75
2023-04-07T06:06:43.036Z,7.20
2023-04-07T06:09:27.800Z,6.72
2023-04-07T06:14:57.506Z,7.15
2023-04-07T06:17:44.931Z,8.27
2023-04-07T06:20:30.641Z,7.93
2023-04-07T06:23:16.364Z,7.97
2023-04-07T06:26:01.371Z,8.65
2023-04-07T06:28:47.875Z,8.40
2023-04-07T06:31:32.812Z,8.25
2023-04-07T06:34:17.874Z,8.18
2023-04-07T06:37:04.758Z,7.80
2023-04-07T06:39:50.938Z,7.90
2023-04-07T06:42:36.068Z,7.57
2023-04-07T06:45:29.909Z,7.30
2023-04-07T06:48:15.010Z,5.97
2023-04-07T06:51:00.436Z,5.13
2023-04-07T06:53:48.020Z,4.55
2023-04-07T06:56:33.233Z,4.38
2023-04-07T06:59:20.676Z,3.95
2023-04-07T07:02:07.036Z,4.18
2023-04-07T07:04:51.703Z,4.03
2023-04-07T07:07:37.109Z,3.65
2023-04-07T07:10:22.170Z,3.50
2023-04-07T07:13:07.188Z,3.78
2023-04-07T07:18:36.727Z,3.92
2023-04-07T07:21:21.745Z,3.78
2023-04-07T07:24:06.667Z,4.03
2023-04-07T07:26:51.505Z,4.25
2023-04-07T07:29:36.467Z,3.95
2023-04-07T07:32:20.990Z,4.22
2023-04-07T07:35:05.826Z,4.00
2023-04-07T07:37:53.852Z,3.95
2023-04-07T07:40:38.974Z,4.40
2023-04-07T07:43:23.879Z,5.10
2023-04-07T07:46:09.110Z,5.00
2023-04-07T07:48:54.014Z,4.35
2023-04-07T07:51:39.135Z,4.03
2023-04-07T07:54:24.025Z,3.60
2023-04-07T07:57:09.033Z,4.05
2023-04-07T07:59:54.056Z,3.28
2023-04-07T08:02:39.315Z,3.67
2023-04-07T08:05:24.143Z,3.97
2023-04-07T08:08:08.929Z,3.55
2023-04-07T08:10:54.118Z,3.28
2023-04-07T08:13:39.646Z,3.10
2023-04-07T08:16:26.240Z,2.70
2023-04-07T08:19:11.536Z,3.03
2023-04-07T08:21:56.317Z,3.00
2023-04-07T08:27:25.811Z,2.90
2023-04-07T08:30:10.814Z,3.83
2023-04-07T08:32:56.231Z,3.70
2023-04-07T08:35:40.875Z,3.13
2023-04-07T08:38:25.768Z,3.25
2023-04-07T08:41:13.028Z,3.38
2023-04-07T08:43:58.135Z,4.32
2023-04-07T08:46:43.157Z,3.70
2023-04-07T08:49:29.597Z,3.15
2023-04-07T08:52:15.931Z,3.10
2023-04-07T08:55:06.094Z,3.42
2023-04-07T08:57:51.440Z,3.70
2023-04-07T09:00:36.425Z,3.20
2023-04-07T09:03:23.472Z,3.35
2023-04-07T09:06:10.358Z,3.03
2023-04-07T09:08:55.368Z,3.10
2023-04-07T09:11:40.583Z,3.50
2023-04-07T09:14:25.868Z,3.15
2023-04-07T09:17:10.447Z,3.28
2023-04-07T09:20:00.287Z,3.45
2023-04-07T09:22:45.577Z,3.22
2023-04-07T09:25:31.373Z,3.20
2023-04-07T09:28:16.267Z,2.72
2023-04-07T09:31:01.057Z,2.90
2023-04-07T09:33:47.534Z,2.97
2023-04-07T09:36:41.742Z,2.97
2023-04-07T09:39:26.725Z,3.40
2023-04-07T09:42:11.566Z,3.10
2023-04-07T09:44:56.495Z,3.40
2023-04-07T09:47:41.418Z,3.65
2023-04-07T09:50:35.203Z,3.38
2023-04-07T09:53:20.786Z,3.60
2023-04-07T09:56:05.881Z,4.00
2023-04-07T09:58:53.556Z,4.10
2023-04-07T10:01:38.928Z,4.50
2023-04-07T10:04:25.072Z,4.30
2023-04-07T10:07:10.013Z,4.28
2023-04-07T10:09:55.094Z,4.78
2023-04-07T10:12:41.559Z,4.82
2023-04-07T10:15:26.590Z,5.78
2023-04-07T10:18:13.442Z,5.03
2023-04-07T10:21:03.899Z,5.07
2023-04-07T10:26:42.782Z,5.35
2023-04-07T10:29:30.901Z,5.50
2023-04-07T10:32:16.727Z,6.35
2023-04-07T10:35:01.547Z,5.70
2023-04-07T10:38:15.851Z,6.25
2023-04-07T10:41:38.837Z,5.65
2023-04-07T10:44:53.010Z,6.10
2023-04-07T10:48:00.153Z,5.90
2023-04-07T10:51:06.935Z,6.45
2023-04-07T10:54:22.327Z,6.47
2023-04-07T10:57:10.382Z,6.45
2023-04-07T11:00:10.793Z,6.53
2023-04-07T11:02:55.960Z,7.03
2023-04-07T11:05:42.252Z,6.80
2023-04-07T11:08:41.250Z,6.65
2023-04-07T11:11:40.965Z,6.75
2023-04-07T11:14:27.540Z,6.82
2023-04-07T11:17:16.494Z,8.50
2023-04-07T11:20:01.298Z,6.40
2023-04-07T11:22:59.523Z,6.25
2023-04-07T11:25:45.976Z,6.97
2023-04-07T11:28:31.116Z,7.50
2023-04-07T11:31:30.653Z,7.78
2023-04-07T11:34:15.330Z,7.75
2023-04-07T11:37:24.940Z,7.05
2023-04-07T11:40:10.853Z,7.68
2023-04-07T11:42:56.459Z,8.32
2023-04-07T11:45:41.926Z,8.05
2023-04-07T11:48:30.652Z,8.70
2023-04-07T11:51:22.079Z,8.82
2023-04-07T11:54:07.415Z,9.70
2023-04-07T11:56:54.945Z,8.80
2023-04-07T11:59:40.845Z,7.05
2023-04-07T12:02:35.470Z,9.20
2023-04-07T12:05:20.388Z,8.02
2023-04-07T12:08:05.919Z,8.70
2023-04-07T12:11:03.957Z,8.30
2023-04-07T12:13:48.564Z,9.35
2023-04-07T12:16:38.527Z,8.60
2023-04-07T12:19:27.613Z,8.07
2023-04-07T12:22:12.339Z,8.63
2023-04-07T12:27:43.742Z,8.20
2023-04-07T12:30:28.962Z,9.70
2023-04-07T12:33:13.835Z,8.40
2023-04-07T12:35:58.943Z,8.52
2023-04-07T12:38:44.092Z,8.93
2023-04-07T12:41:29.023Z,9.50
2023-04-07T12:44:15.058Z,8.80
2023-04-07T12:47:00.126Z,9.05
2023-04-07T12:49:44.824Z,8.70
2023-04-07T12:55:13.945Z,9.40
2023-04-07T12:57:59.850Z,9.77
2023-04-07T13:00:47.131Z,9.48
2023-04-07T13:03:32.143Z,9.73
2023-04-07T13:06:17.031Z,9.55
2023-04-07T13:09:02.018Z,10.27
2023-04-07T13:11:46.867Z,10.48
2023-04-07T13:14:31.839Z,9.93
2023-04-07T13:17:18.034Z,10.50
2023-04-07T13:20:03.900Z,10.20
2023-04-07T13:22:52.057Z,10.25
2023-04-07T13:25:48.267Z,9.55
2023-04-07T13:28:33.382Z,10.70
2023-04-07T13:31:18.531Z,10.25
2023-04-07T13:34:03.421Z,11.70
2023-04-07T13:36:48.571Z,12.32
2023-04-07T13:39:33.566Z,10.55
2023-04-07T13:42:20.247Z,9.68
2023-04-07T13:45:05.232Z,9.52
2023-04-07T13:47:50.083Z,10.32
2023-04-07T13:50:36.681Z,10.13
2023-04-07T13:53:22.443Z,11.63
2023-04-07T13:56:09.013Z,10.43
2023-04-07T13:58:54.300Z,11.13
2023-04-07T14:01:39.169Z,10.77
2023-04-07T14:04:23.884Z,14.45
2023-04-07T14:07:09.208Z,13.45
2023-04-07T14:09:54.023Z,14.10
2023-04-07T14:12:38.745Z,12.50
2023-04-07T14:15:23.840Z,13.02
2023-04-07T14:18:09.045Z,11.65
2023-04-07T14:20:54.433Z,12.38
2023-04-07T14:23:39.249Z,11.88
2023-04-07T14:26:24.313Z,11.57
2023-04-07T14:29:09.504Z,11.82
2023-04-07T14:31:54.251Z,11.40
2023-04-07T14:34:39.168Z,11.52
2023-04-07T14:37:25.745Z,11.48
2023-04-07T14:40:11.011Z,12.50
2023-04-07T14:45:45.556Z,12.05
2023-04-07T14:48:30.564Z,11.88
2023-04-07T14:51:15.373Z,11.60
2023-04-07T14:54:00.098Z,12.18
2023-04-07T14:56:44.965Z,11.48
2023-04-07T14:59:29.858Z,12.00
2023-04-07T15:02:14.968Z,11.45
2023-04-07T15:04:59.706Z,12.23
2023-04-07T15:07:46.719Z,12.07
2023-04-07T15:10:34.882Z,12.18
2023-04-07T15:13:20.172Z,12.20
2023-04-07T15:16:13.969Z,11.23
2023-04-07T15:18:59.165Z,11.20
2023-04-07T15:21:43.876Z,11.40
2023-04-07T15:24:29.133Z,11.27
2023-04-07T15:27:14.132Z,10.77
2023-04-07T15:29:59.995Z,11.07
2023-04-07T15:33:03.737Z,10.23
2023-04-07T15:35:48.493Z,10.80
2023-04-07T15:38:34.300Z,9.98
2023-04-07T15:41:19.137Z,10.05
2023-04-07T15:44:04.129Z,10.77
2023-04-07T15:46:49.277Z,10.38
2023-04-07T15:49:36.706Z,9.25
2023-04-07T15:52:21.576Z,10.43
2023-04-07T15:55:06.658Z,9.88
2023-04-07T15:57:52.584Z,9.75
2023-04-07T16:00:38.530Z,9.75
2023-04-07T16:03:23.181Z,9.65
2023-04-07T16:06:08.202Z,9.73
2023-04-07T16:08:52.959Z,9.68
2023-04-07T16:11:37.937Z,9.82
2023-04-07T16:14:22.954Z,9.85
2023-04-07T16:17:08.060Z,10.65
2023-04-07T16:19:53.126Z,8.95
2023-04-07T16:22:38.032Z,10.82
2023-04-07T16:25:22.972Z,9.82
2023-04-07T16:28:08.109Z,10.00
2023-04-07T16:30:53.088Z,10.23
2023-04-07T16:33:38.588Z,11.25
2023-04-07T16:36:23.513Z,12.18
2023-04-07T16:39:08.492Z,11.82
2023-04-07T16:41:53.461Z,12.02
2023-04-07T16:44:38.498Z,12.30
2023-04-07T16:47:24.237Z,11.98
2023-04-07T16:50:09.558Z,11.85
2023-04-07T16:52:56.897Z,11.55
2023-04-07T16:55:41.967Z,11.63
2023-04-07T16:58:27.257Z,11.52
2023-04-07T17:01:11.942Z,11.00
2023-04-07T17:03:56.971Z,11.65
2023-04-07T17:06:41.747Z,11.45
2023-04-07T17:09:26.651Z,11.60
2023-04-07T17:12:13.026Z,12.82
2023-04-07T17:14:57.669Z,13.65
2023-04-07T17:17:42.686Z,13.82
2023-04-07T17:20:27.555Z,13.77
2023-04-07T17:25:56.857Z,12.15
2023-04-07T17:28:41.809Z,12.43
2023-04-07T17:31:26.572Z,12.95
2023-04-07T17:34:11.582Z,13.15
2023-04-07T17:36:56.457Z,15.73
2023-04-07T17:39:41.454Z,15.13
2023-04-07T17:42:26.478Z,14.85
2023-04-07T17:45:12.047Z,15.15
2023-04-07T17:47:57.022Z,13.82
2023-04-07T17:50:42.380Z,11.77
2023-04-07T17:53:27.930Z,11.75
2023-04-07T17:56:13.021Z,11.13
2023-04-07T17:58:57.911Z,11.30
2023-04-07T18:01:42.968Z,10.93
2023-04-07T18:04:29.780Z,10.63
2023-04-07T18:07:14.850Z,10.57
2023-04-07T18:10:00.682Z,11.68
2023-04-07T18:12:45.398Z,11.23
2023-04-07T18:15:30.834Z,11.57
2023-04-07T18:18:15.485Z,12.52
2023-04-07T18:21:00.566Z,11.88
2023-04-07T18:23:45.764Z,10.70
2023-04-07T18:26:31.259Z,11.80
2023-04-07T18:29:15.721Z,11.60
2023-04-07T18:32:00.775Z,12.63
2023-04-07T18:34:47.281Z,12.40
2023-04-07T18:37:32.531Z,11.13
2023-04-07T18:40:17.287Z,12.07
2023-04-07T18:43:02.382Z,12.85
2023-04-07T18:45:47.203Z,11.82
2023-04-07T18:48:32.191Z,12.40
2023-04-07T18:51:17.133Z,12.00
2023-04-07T18:54:02.457Z,11.77
2023-04-07T18:56:47.620Z,11.43
2023-04-07T18:59:32.702Z,13.00
2023-04-07T19:02:17.571Z,13.90
2023-04-07T19:05:03.089Z,15.75
2023-04-07T19:07:47.702Z,16.70
2023-04-07T19:10:32.645Z,18.80
2023-04-07T19:13:18.383Z,19.23
2023-04-07T19:16:03.317Z,18.83
2023-04-07T19:18:48.127Z,18.15
2023-04-07T19:21:33.147Z,18.15
2023-04-07T19:24:18.139Z,18.25
2023-04-07T19:27:03.621Z,17.67
2023-04-07T19:29:48.437Z,16.15
2023-04-07T19:32:33.341Z,15.82
2023-04-07T19:35:18.378Z,18.70
2023-04-07T19:38:04.743Z,16.73
2023-04-07T19:40:49.649Z,16.65
2023-04-07T19:43:34.830Z,16.73
2023-04-07T19:46:20.009Z,17.73
2023-04-07T19:49:04.847Z,17.75
2023-04-07T19:51:52.179Z,18.15
2023-04-07T19:54:36.828Z,20.52
2023-04-07T19:57:22.040Z,18.95
2023-04-07T20:00:08.502Z,16.15
2023-04-07T20:02:53.443Z,17.27
2023-04-07T20:08:22.604Z,14.15
2023-04-07T20:11:10.801Z,13.93
2023-04-07T20:13:55.555Z,17.50
2023-04-07T20:16:40.794Z,16.45
2023-04-07T20:19:25.447Z,17.02
2023-04-07T20:22:10.898Z,18.05
2023-04-07T20:24:55.808Z,17.30
2023-04-07T20:27:40.827Z,17.40
2023-04-07T20:30:26.272Z,16.77
2023-04-07T20:33:11.188Z,16.83
2023-04-07T20:35:56.383Z,17.73
2023-04-07T20:38:43.993Z,18.13
2023-04-07T20:41:28.712Z,15.85
2023-04-07T20:44:13.291Z,19.90
2023-04-07T20:49:43.187Z,20.25
2023-04-07T20:52:28.686Z,19.40
2023-04-07T20:55:13.603Z,24.88
2023-04-07T20:57:58.247Z,22.98
2023-04-07T21:00:43.706Z,24.15
2023-04-07T21:03:30.162Z,22.23
2023-04-07T21:06:14.971Z,21.10
2023-04-07T21:09:00.734Z,21.95
2023-04-07T21:11:45.387Z,18.60
2023-04-07T21:14:31.483Z,19.40
2023-04-07T21:17:16.452Z,19.08
2023-04-07T21:20:00.985Z,18.98
2023-04-07T21:22:46.313Z,19.55
2023-04-07T21:28:15.709Z,18.33
2023-04-07T21:31:00.617Z,17.27
2023-04-07T21:33:45.931Z,17.90
2023-04-07T21:36:31.443Z,19.35
2023-04-07T21:39:16.481Z,17.17
2023-04-07T21:42:01.781Z,16.85
2023-04-07T21:44:46.733Z,17.15
2023-04-07T21:47:31.434Z,15.65
2023-04-07T21:53:01.085Z,14.05
2023-04-07T21:58:30.472Z,13.93
2023-04-07T22:01:17.009Z,14.23
2023-04-07T22:04:02.439Z,13.98
2023-04-07T22:06:47.466Z,14.38
2023-04-07T22:09:32.335Z,13.75
2023-04-07T22:12:17.362Z,14.52
2023-04-07T22:15:02.151Z,14.77
2023-04-07T22:17:47.193Z,13.93
2023-04-07T22:23:16.447Z,12.98
2023-04-07T22:26:01.369Z,14.90
2023-04-07T22:28:46.634Z,15.52
2023-04-07T22:31:31.547Z,15.63
2023-04-07T22:37:00.943Z,15.70
2023-04-07T22:42:31.320Z,20.65
2023-04-07T22:48:02.935Z,21.65
2023-04-07T22:50:47.870Z,25.27
2023-04-07T22:53:32.809Z,22.42
2023-04-07T22:56:18.639Z,21.42
2023-04-07T22:59:04.975Z,22.45
2023-04-07T23:01:50.116Z,23.13
2023-04-07T23:04:35.099Z,23.33
2023-04-07T23:07:19.978Z,24.95
2023-04-07T23:10:07.142Z,27.83
2023-04-07T23:12:55.818Z,29.00
2023-04-07T23:15:40.707Z,29.63
2023-04-07T23:18:25.390Z,30.23
2023-04-07T23:21:11.663Z,29.48
2023-04-07T23:23:56.390Z,31.08
2023-04-07T23:26:41.369Z,28.88
2023-04-07T23:32:11.465Z,25.77
2023-04-07T23:34:56.228Z,25.33
2023-04-07T23:37:41.694Z,26.73
2023-04-07T23:40:26.242Z,24.98
2023-04-07T23:43:11.291Z,22.83
2023-04-07T23:45:56.213Z,21.85
2023-04-07T23:48:41.727Z,21.75
2023-04-07T23:51:27.579Z,20.95
2023-04-07T23:54:12.186Z,23.05
2023-04-07T23:56:57.697Z,20.90
2023-04-07T23:59:42.140Z,19.35
